sensor_id;sensor_type;location;lat;lon;timestamp;pressure;altitude;pressure_sealevel;temperature;humidity
32324;BME280;25666;44.350;9.222;2023-03-03T00:01:18;101484.69;;;9.87;100.00
32324;BME280;25666;44.350;9.222;2023-03-03T00:03:44;101478.16;;;9.83;100.00
32324;BME280;25666;44.350;9.222;2023-03-03T00:06:11;101491.25;;;9.91;100.00
32324;BME280;25666;44.350;9.222;2023-03-03T00:08:38;101487.47;;;10.04;100.00
32324;BME280;25666;44.350;9.222;2023-03-03T00:11:04;101490.25;;;10.04;100.00
32324;BME280;25666;44.350;9.222;2023-03-03T00:13:31;101483.69;;;10.00;100.00
32324;BME280;25666;44.350;9.222;2023-03-03T00:16:12;101486.81;;;9.73;100.00
32324;BME280;25666;44.350;9.222;2023-03-03T00:18:44;101491.22;;;9.57;100.00
32324;BME280;25666;44.350;9.222;2023-03-03T00:21:28;101479.13;;;9.79;100.00
32324;BME280;25666;44.350;9.222;2023-03-03T00:24:10;101490.09;;;9.58;100.00
32324;BME280;25666;44.350;9.222;2023-03-03T00:26:50;101486.97;;;9.59;100.00
32324;BME280;25666;44.350;9.222;2023-03-03T00:29:35;101498.09;;;9.68;100.00
32324;BME280;25666;44.350;9.222;2023-03-03T00:37:59;101485.50;;;9.96;100.00
32324;BME280;25666;44.350;9.222;2023-03-03T00:42:58;101494.69;;;9.80;100.00
32324;BME280;25666;44.350;9.222;2023-03-03T00:45:31;101499.72;;;10.03;100.00
32324;BME280;25666;44.350;9.222;2023-03-03T00:50:47;101484.69;;;10.04;100.00
32324;BME280;25666;44.350;9.222;2023-03-03T00:53:14;101489.25;;;10.00;100.00
32324;BME280;25666;44.350;9.222;2023-03-03T00:55:46;101479.28;;;9.91;100.00
32324;BME280;25666;44.350;9.222;2023-03-03T00:58:12;101480.44;;;9.81;100.00
32324;BME280;25666;44.350;9.222;2023-03-03T01:00:42;101479.47;;;9.77;100.00
32324;BME280;25666;44.350;9.222;2023-03-03T01:03:14;101483.88;;;9.61;100.00
32324;BME280;25666;44.350;9.222;2023-03-03T01:05:39;101482.22;;;9.68;100.00
32324;BME280;25666;44.350;9.222;2023-03-03T01:08:05;101481.59;;;9.80;100.00
32324;BME280;25666;44.350;9.222;2023-03-03T01:10:34;101481.28;;;9.99;100.00
32324;BME280;25666;44.350;9.222;2023-03-03T01:13:01;101480.78;;;10.14;100.00
32324;BME280;25666;44.350;9.222;2023-03-03T01:15:27;101473.72;;;10.25;100.00
32324;BME280;25666;44.350;9.222;2023-03-03T01:17:53;101476.81;;;10.06;100.00
32324;BME280;25666;44.350;9.222;2023-03-03T01:20:19;101469.16;;;9.86;100.00
32324;BME280;25666;44.350;9.222;2023-03-03T01:22:45;101470.16;;;9.64;100.00
32324;BME280;25666;44.350;9.222;2023-03-03T01:25:11;101465.25;;;9.70;100.00
32324;BME280;25666;44.350;9.222;2023-03-03T01:27:36;101462.78;;;9.68;100.00
32324;BME280;25666;44.350;9.222;2023-03-03T01:30:06;101458.84;;;9.69;100.00
32324;BME280;25666;44.350;9.222;2023-03-03T01:32:32;101460.00;;;9.68;100.00
32324;BME280;25666;44.350;9.222;2023-03-03T01:34:58;101450.34;;;9.75;100.00
32324;BME280;25666;44.350;9.222;2023-03-03T01:37:24;101450.03;;;9.67;100.00
32324;BME280;25666;44.350;9.222;2023-03-03T01:39:51;101446.78;;;9.74;100.00
32324;BME280;25666;44.350;9.222;2023-03-03T01:42:17;101442.81;;;9.84;100.00
32324;BME280;25666;44.350;9.222;2023-03-03T01:44:43;101434.16;;;9.68;100.00
32324;BME280;25666;44.350;9.222;2023-03-03T01:47:15;101446.28;;;9.55;100.00
32324;BME280;25666;44.350;9.222;2023-03-03T01:49:47;101434.69;;;9.61;100.00
32324;BME280;25666;44.350;9.222;2023-03-03T01:52:27;101431.53;;;9.89;100.00
32324;BME280;25666;44.350;9.222;2023-03-03T01:55:00;101435.47;;;9.88;100.00
32324;BME280;25666;44.350;9.222;2023-03-03T01:57:33;101432.22;;;9.77;100.00
32324;BME280;25666;44.350;9.222;2023-03-03T02:00:03;101434.00;;;9.82;100.00
32324;BME280;25666;44.350;9.222;2023-03-03T02:02:38;101432.53;;;9.67;100.00
32324;BME280;25666;44.350;9.222;2023-03-03T02:05:06;101431.69;;;9.84;100.00
32324;BME280;25666;44.350;9.222;2023-03-03T02:07:32;101434.81;;;9.82;100.00
32324;BME280;25666;44.350;9.222;2023-03-03T02:12:39;101428.44;;;9.82;100.00
32324;BME280;25666;44.350;9.222;2023-03-03T02:17:46;101419.13;;;9.69;100.00
32324;BME280;25666;44.350;9.222;2023-03-03T02:20:36;101421.44;;;9.67;100.00
32324;BME280;25666;44.350;9.222;2023-03-03T02:23:12;101420.25;;;9.68;100.00
32324;BME280;25666;44.350;9.222;2023-03-03T02:26:05;101419.63;;;9.80;100.00
32324;BME280;25666;44.350;9.222;2023-03-03T02:28:33;101414.22;;;9.66;100.00
32324;BME280;25666;44.350;9.222;2023-03-03T02:31:06;101418.00;;;9.70;100.00
32324;BME280;25666;44.350;9.222;2023-03-03T02:33:35;101427.31;;;9.57;100.00
32324;BME280;25666;44.350;9.222;2023-03-03T02:36:00;101413.06;;;9.76;100.00
32324;BME280;25666;44.350;9.222;2023-03-03T02:44:00;101410.94;;;9.81;100.00
32324;BME280;25666;44.350;9.222;2023-03-03T02:46:27;101411.63;;;9.61;100.00
32324;BME280;25666;44.350;9.222;2023-03-03T02:48:54;101410.44;;;9.62;100.00
32324;BME280;25666;44.350;9.222;2023-03-03T02:51:20;101411.13;;;9.50;100.00
32324;BME280;25666;44.350;9.222;2023-03-03T02:53:45;101407.88;;;9.48;100.00
32324;BME280;25666;44.350;9.222;2023-03-03T02:56:11;101409.97;;;9.51;100.00
32324;BME280;25666;44.350;9.222;2023-03-03T02:58:37;101405.06;;;9.57;100.00
32324;BME280;25666;44.350;9.222;2023-03-03T03:01:03;101407.38;;;9.55;100.00
32324;BME280;25666;44.350;9.222;2023-03-03T03:03:29;101406.69;;;9.49;100.00
32324;BME280;25666;44.350;9.222;2023-03-03T03:05:55;101407.69;;;9.53;100.00
32324;BME280;25666;44.350;9.222;2023-03-03T03:08:22;101403.13;;;9.57;100.00
32324;BME280;25666;44.350;9.222;2023-03-03T03:10:47;101417.00;;;9.40;100.00
32324;BME280;25666;44.350;9.222;2023-03-03T03:13:13;101412.41;;;9.53;100.00
32324;BME280;25666;44.350;9.222;2023-03-03T03:15:40;101411.94;;;9.59;100.00
32324;BME280;25666;44.350;9.222;2023-03-03T03:18:05;101416.00;;;9.62;100.00
32324;BME280;25666;44.350;9.222;2023-03-03T03:20:36;101411.63;;;9.61;100.00
32324;BME280;25666;44.350;9.222;2023-03-03T03:23:02;101406.03;;;9.69;100.00
32324;BME280;25666;44.350;9.222;2023-03-03T03:25:28;101411.94;;;9.77;100.00
32324;BME280;25666;44.350;9.222;2023-03-03T03:27:54;101411.13;;;9.67;100.00
32324;BME280;25666;44.350;9.222;2023-03-03T03:30:20;101401.00;;;9.54;100.00
32324;BME280;25666;44.350;9.222;2023-03-03T03:32:47;101412.44;;;9.36;100.00
32324;BME280;25666;44.350;9.222;2023-03-03T03:35:12;101408.66;;;9.40;100.00
32324;BME280;25666;44.350;9.222;2023-03-03T03:37:38;101412.59;;;9.48;100.00
32324;BME280;25666;44.350;9.222;2023-03-03T03:40:05;101410.31;;;9.41;100.00
32324;BME280;25666;44.350;9.222;2023-03-03T03:42:31;101416.03;;;9.36;100.00
32324;BME280;25666;44.350;9.222;2023-03-03T03:44:56;101420.44;;;9.37;100.00
32324;BME280;25666;44.350;9.222;2023-03-03T03:47:22;101414.38;;;9.52;100.00
32324;BME280;25666;44.350;9.222;2023-03-03T03:49:48;101418.00;;;9.70;100.00
32324;BME280;25666;44.350;9.222;2023-03-03T03:52:13;101418.16;;;9.74;100.00
32324;BME280;25666;44.350;9.222;2023-03-03T03:54:39;101418.00;;;9.70;100.00
32324;BME280;25666;44.350;9.222;2023-03-03T03:57:04;101416.69;;;9.67;100.00
32324;BME280;25666;44.350;9.222;2023-03-03T03:59:30;101413.56;;;9.60;100.00
32324;BME280;25666;44.350;9.222;2023-03-03T04:01:56;101426.81;;;9.55;100.00
32324;BME280;25666;44.350;9.222;2023-03-03T04:04:22;101408.16;;;9.47;100.00
32324;BME280;25666;44.350;9.222;2023-03-03T04:06:48;101417.66;;;9.63;100.00
32324;BME280;25666;44.350;9.222;2023-03-03T04:09:14;101421.06;;;9.34;100.00
32324;BME280;25666;44.350;9.222;2023-03-03T04:11:40;101416.50;;;9.38;100.00
32324;BME280;25666;44.350;9.222;2023-03-03T04:14:06;101416.03;;;9.45;100.00
32324;BME280;25666;44.350;9.222;2023-03-03T04:16:34;101426.16;;;9.49;100.00
32324;BME280;25666;44.350;9.222;2023-03-03T04:19:00;101417.50;;;9.51;100.00
32324;BME280;25666;44.350;9.222;2023-03-03T04:21:25;101418.97;;;9.48;100.00
32324;BME280;25666;44.350;9.222;2023-03-03T04:23:54;101420.13;;;9.39;100.00
32324;BME280;25666;44.350;9.222;2023-03-03T04:26:20;101417.47;;;9.25;100.00
32324;BME280;25666;44.350;9.222;2023-03-03T04:28:47;101414.69;;;9.34;100.00
32324;BME280;25666;44.350;9.222;2023-03-03T04:31:13;101409.31;;;9.29;100.00
32324;BME280;25666;44.350;9.222;2023-03-03T04:33:39;101414.22;;;9.23;100.00
32324;BME280;25666;44.350;9.222;2023-03-03T04:36:06;101408.16;;;9.21;100.00
32324;BME280;25666;44.350;9.222;2023-03-03T04:38:32;101410.78;;;9.18;100.00
32324;BME280;25666;44.350;9.222;2023-03-03T04:40:58;101419.75;;;9.14;100.00
32324;BME280;25666;44.350;9.222;2023-03-03T04:43:26;101414.38;;;9.27;100.00
32324;BME280;25666;44.350;9.222;2023-03-03T04:45:52;101418.94;;;9.23;100.00
32324;BME280;25666;44.350;9.222;2023-03-03T04:48:18;101424.16;;;9.15;100.00
32324;BME280;25666;44.350;9.222;2023-03-03T04:50:44;101423.19;;;9.20;100.00
32324;BME280;25666;44.350;9.222;2023-03-03T04:53:10;101418.13;;;9.13;100.00
32324;BME280;25666;44.350;9.222;2023-03-03T04:55:36;101419.91;;;9.09;100.00
32324;BME280;25666;44.350;9.222;2023-03-03T04:58:03;101426.13;;;9.15;100.00
32324;BME280;25666;44.350;9.222;2023-03-03T05:00:29;101428.94;;;9.24;100.00
32324;BME280;25666;44.350;9.222;2023-03-03T05:02:54;101434.31;;;9.20;100.00
32324;BME280;25666;44.350;9.222;2023-03-03T05:05:20;101428.59;;;9.17;100.00
32324;BME280;25666;44.350;9.222;2023-03-03T05:07:45;101429.41;;;9.17;100.00
32324;BME280;25666;44.350;9.222;2023-03-03T05:10:11;101429.38;;;9.08;100.00
32324;BME280;25666;44.350;9.222;2023-03-03T05:12:36;101421.38;;;9.15;100.00
32324;BME280;25666;44.350;9.222;2023-03-03T05:15:02;101416.16;;;9.14;100.00
32324;BME280;25666;44.350;9.222;2023-03-03T05:17:27;101427.09;;;9.19;100.00
32324;BME280;25666;44.350;9.222;2023-03-03T05:19:53;101411.09;;;9.16;100.00
32324;BME280;25666;44.350;9.222;2023-03-03T05:22:22;101424.97;;;9.16;100.00
32324;BME280;25666;44.350;9.222;2023-03-03T05:24:48;101419.94;;;9.27;100.00
32324;BME280;25666;44.350;9.222;2023-03-03T05:27:14;101412.41;;;9.19;100.00
32324;BME280;25666;44.350;9.222;2023-03-03T05:29:40;101417.47;;;9.17;100.00
32324;BME280;25666;44.350;9.222;2023-03-03T05:32:05;101417.78;;;9.15;100.00
32324;BME280;25666;44.350;9.222;2023-03-03T05:34:31;101414.22;;;9.14;100.00
32324;BME280;25666;44.350;9.222;2023-03-03T05:36:56;101421.72;;;9.23;100.00
32324;BME280;25666;44.350;9.222;2023-03-03T05:39:22;101421.72;;;9.31;100.00
32324;BME280;25666;44.350;9.222;2023-03-03T05:41:47;101423.38;;;9.24;100.00
32324;BME280;25666;44.350;9.222;2023-03-03T05:44:13;101422.38;;;9.20;100.00
32324;BME280;25666;44.350;9.222;2023-03-03T05:46:39;101421.06;;;9.17;100.00
32324;BME280;25666;44.350;9.222;2023-03-03T05:49:04;101425.47;;;9.18;100.00
32324;BME280;25666;44.350;9.222;2023-03-03T05:51:30;101421.91;;;9.18;100.00
32324;BME280;25666;44.350;9.222;2023-03-03T05:53:55;101430.38;;;9.21;100.00
32324;BME280;25666;44.350;9.222;2023-03-03T05:56:21;101424.31;;;9.10;100.00
32324;BME280;25666;44.350;9.222;2023-03-03T05:58:46;101423.69;;;9.13;100.00
32324;BME280;25666;44.350;9.222;2023-03-03T06:01:11;101433.31;;;9.16;100.00
32324;BME280;25666;44.350;9.222;2023-03-03T06:03:37;101430.06;;;9.23;100.00
32324;BME280;25666;44.350;9.222;2023-03-03T06:06:03;101434.97;;;9.26;100.00
32324;BME280;25666;44.350;9.222;2023-03-03T06:08:28;101434.31;;;9.29;100.00
32324;BME280;25666;44.350;9.222;2023-03-03T06:10:56;101440.53;;;9.34;100.00
32324;BME280;25666;44.350;9.222;2023-03-03T06:13:22;101435.13;;;9.38;100.00
32324;BME280;25666;44.350;9.222;2023-03-03T06:15:47;101434.31;;;9.37;100.00
32324;BME280;25666;44.350;9.222;2023-03-03T06:18:13;101437.91;;;9.46;100.00
32324;BME280;25666;44.350;9.222;2023-03-03T06:20:38;101443.81;;;9.45;100.00
32324;BME280;25666;44.350;9.222;2023-03-03T06:23:04;101445.13;;;9.47;100.00
32324;BME280;25666;44.350;9.222;2023-03-03T06:27:57;101449.06;;;9.55;100.00
32324;BME280;25666;44.350;9.222;2023-03-03T06:33:04;101444.13;;;9.78;100.00
32324;BME280;25666;44.350;9.222;2023-03-03T06:35:30;101444.31;;;9.90;100.00
32324;BME280;25666;44.350;9.222;2023-03-03T06:37:55;101447.09;;;9.90;100.00
32324;BME280;25666;44.350;9.222;2023-03-03T06:40:21;101458.69;;;10.00;100.00
32324;BME280;25666;44.350;9.222;2023-03-03T06:42:47;101458.53;;;10.14;100.00
32324;BME280;25666;44.350;9.222;2023-03-03T06:45:13;101465.88;;;10.10;100.00
32324;BME280;25666;44.350;9.222;2023-03-03T06:47:38;101463.25;;;10.22;100.00
32324;BME280;25666;44.350;9.222;2023-03-03T06:50:04;101462.88;;;10.41;100.00
32324;BME280;25666;44.350;9.222;2023-03-03T06:52:30;101466.44;;;10.50;100.00
32324;BME280;25666;44.350;9.222;2023-03-03T06:55:01;101466.28;;;10.55;100.00
32324;BME280;25666;44.350;9.222;2023-03-03T06:57:34;101467.22;;;10.59;100.00
32324;BME280;25666;44.350;9.222;2023-03-03T07:00:17;101471.81;;;10.63;100.00
32324;BME280;25666;44.350;9.222;2023-03-03T07:02:47;101469.69;;;10.60;100.00
32324;BME280;25666;44.350;9.222;2023-03-03T07:05:17;101475.19;;;10.77;100.00
32324;BME280;25666;44.350;9.222;2023-03-03T07:07:43;101476.53;;;10.71;100.00
32324;BME280;25666;44.350;9.222;2023-03-03T07:10:19;101479.44;;;10.84;100.00
32324;BME280;25666;44.350;9.222;2023-03-03T07:12:46;101480.44;;;10.79;100.00
32324;BME280;25666;44.350;9.222;2023-03-03T07:17:44;101480.38;;;10.88;100.00
32324;BME280;25666;44.350;9.222;2023-03-03T07:22:45;101488.63;;;10.75;100.00
32324;BME280;25666;44.350;9.222;2023-03-03T07:25:25;101485.00;;;10.84;100.00
32324;BME280;25666;44.350;9.222;2023-03-03T07:27:58;101490.69;;;10.96;100.00
32324;BME280;25666;44.350;9.222;2023-03-03T07:30:26;101498.75;;;10.89;100.00
32324;BME280;25666;44.350;9.222;2023-03-03T07:32:54;101491.13;;;11.06;100.00
32324;BME280;25666;44.350;9.222;2023-03-03T07:35:37;101497.59;;;11.19;100.00
32324;BME280;25666;44.350;9.222;2023-03-03T07:38:35;101498.38;;;11.28;100.00
32324;BME280;25666;44.350;9.222;2023-03-03T07:41:05;101501.00;;;11.24;100.00
32324;BME280;25666;44.350;9.222;2023-03-03T07:48:45;101507.25;;;11.51;100.00
32324;BME280;25666;44.350;9.222;2023-03-03T07:51:18;101497.88;;;11.55;100.00
32324;BME280;25666;44.350;9.222;2023-03-03T07:53:44;101506.03;;;11.60;100.00
32324;BME280;25666;44.350;9.222;2023-03-03T07:56:27;101504.38;;;11.89;100.00
32324;BME280;25666;44.350;9.222;2023-03-03T07:58:53;101500.69;;;11.97;100.00
32324;BME280;25666;44.350;9.222;2023-03-03T08:01:40;101509.00;;;12.05;100.00
32324;BME280;25666;44.350;9.222;2023-03-03T08:06:55;101504.97;;;12.15;100.00
32324;BME280;25666;44.350;9.222;2023-03-03T08:09:49;101508.16;;;12.25;100.00
32324;BME280;25666;44.350;9.222;2023-03-03T08:12:32;101511.94;;;12.42;100.00
32324;BME280;25666;44.350;9.222;2023-03-03T08:15:14;101512.06;;;12.45;100.00
32324;BME280;25666;44.350;9.222;2023-03-03T08:17:41;101512.31;;;12.52;100.00
32324;BME280;25666;44.350;9.222;2023-03-03T08:22:53;101514.06;;;12.57;100.00
32324;BME280;25666;44.350;9.222;2023-03-03T08:25:18;101514.31;;;12.64;100.00
32324;BME280;25666;44.350;9.222;2023-03-03T08:27:44;101516.19;;;12.72;100.00
32324;BME280;25666;44.350;9.222;2023-03-03T08:30:11;101518.97;;;12.72;100.00
32324;BME280;25666;44.350;9.222;2023-03-03T08:32:37;101506.09;;;12.79;100.00
32324;BME280;25666;44.350;9.222;2023-03-03T08:35:02;101521.69;;;12.80;100.00
32324;BME280;25666;44.350;9.222;2023-03-03T08:37:28;101513.91;;;12.86;100.00
32324;BME280;25666;44.350;9.222;2023-03-03T08:39:53;101517.03;;;12.84;100.00
32324;BME280;25666;44.350;9.222;2023-03-03T08:42:18;101516.56;;;12.82;100.00
32324;BME280;25666;44.350;9.222;2023-03-03T08:44:44;101517.03;;;12.84;100.00
32324;BME280;25666;44.350;9.222;2023-03-03T08:47:09;101519.81;;;12.84;100.00
32324;BME280;25666;44.350;9.222;2023-03-03T08:49:35;101513.66;;;12.79;100.00
32324;BME280;25666;44.350;9.222;2023-03-03T08:52:00;101522.97;;;12.83;100.00
32324;BME280;25666;44.350;9.222;2023-03-03T08:54:26;101519.47;;;12.74;100.00
32324;BME280;25666;44.350;9.222;2023-03-03T08:56:51;101524.94;;;12.70;100.00
32324;BME280;25666;44.350;9.222;2023-03-03T08:59:17;101530.66;;;12.74;100.00
32324;BME280;25666;44.350;9.222;2023-03-03T09:01:43;101523.53;;;12.76;100.00
32324;BME280;25666;44.350;9.222;2023-03-03T09:04:09;101526.81;;;12.78;100.00
32324;BME280;25666;44.350;9.222;2023-03-03T09:06:35;101530.16;;;12.72;100.00
32324;BME280;25666;44.350;9.222;2023-03-03T09:09:00;101532.84;;;12.68;100.00
32324;BME280;25666;44.350;9.222;2023-03-03T09:11:27;101519.34;;;12.70;100.00
32324;BME280;25666;44.350;9.222;2023-03-03T09:14:17;101523.72;;;12.59;100.00
32324;BME280;25666;44.350;9.222;2023-03-03T09:16:52;101518.41;;;12.66;99.36
32324;BME280;25666;44.350;9.222;2023-03-03T09:19:29;101524.47;;;12.68;100.00
32324;BME280;25666;44.350;9.222;2023-03-03T09:22:01;101517.13;;;12.64;100.00
32324;BME280;25666;44.350;9.222;2023-03-03T09:24:29;101519.56;;;12.65;99.04
32324;BME280;25666;44.350;9.222;2023-03-03T09:26:56;101519.34;;;12.70;99.67
32324;BME280;25666;44.350;9.222;2023-03-03T09:29:28;101522.13;;;12.70;100.00
32324;BME280;25666;44.350;9.222;2023-03-03T09:31:56;101520.06;;;12.79;99.59
32324;BME280;25666;44.350;9.222;2023-03-03T09:37:22;101513.34;;;12.93;96.98
32324;BME280;25666;44.350;9.222;2023-03-03T09:39:50;101518.94;;;13.05;87.95
32324;BME280;25666;44.350;9.222;2023-03-03T09:42:46;101517.41;;;13.07;89.34
32324;BME280;25666;44.350;9.222;2023-03-03T09:48:23;101521.19;;;13.23;86.50
32324;BME280;25666;44.350;9.222;2023-03-03T10:04:41;101512.44;;;13.49;80.50
32324;BME280;25666;44.350;9.222;2023-03-03T10:10:28;101510.78;;;13.60;82.68
32324;BME280;25666;44.350;9.222;2023-03-03T10:21:16;101505.41;;;13.67;100.00
32324;BME280;25666;44.350;9.222;2023-03-03T10:32:29;101526.94;;;13.79;100.00
32324;BME280;25666;44.350;9.222;2023-03-03T10:35:23;101529.28;;;13.77;100.00
32324;BME280;25666;44.350;9.222;2023-03-03T10:40:37;101523.22;;;13.87;100.00
32324;BME280;25666;44.350;9.222;2023-03-03T10:51:36;101523.03;;;14.08;89.21
32324;BME280;25666;44.350;9.222;2023-03-03T11:01:58;101523.63;;;14.29;91.16
32324;BME280;25666;44.350;9.222;2023-03-03T11:04:48;101519.09;;;14.36;92.58
32324;BME280;25666;44.350;9.222;2023-03-03T11:07:23;101527.09;;;14.50;88.87
32324;BME280;25666;44.350;9.222;2023-03-03T11:09:55;101526.16;;;14.46;88.92
32324;BME280;25666;44.350;9.222;2023-03-03T11:12:53;101519.53;;;14.38;87.73
32324;BME280;25666;44.350;9.222;2023-03-03T11:24:01;101504.78;;;14.69;82.18
32324;BME280;25666;44.350;9.222;2023-03-03T11:29:36;101494.84;;;14.72;83.80
32324;BME280;25666;44.350;9.222;2023-03-03T11:40:25;101484.81;;;15.18;83.91
32324;BME280;25666;44.350;9.222;2023-03-03T11:43:15;101486.06;;;15.20;76.77
32324;BME280;25666;44.350;9.222;2023-03-03T11:45:51;101480.09;;;15.22;74.24
32324;BME280;25666;44.350;9.222;2023-03-03T11:48:26;101476.28;;;15.30;75.84
32324;BME280;25666;44.350;9.222;2023-03-03T11:51:05;101472.75;;;15.48;72.48
32324;BME280;25666;44.350;9.222;2023-03-03T11:58:47;101476.34;;;15.84;65.59
32324;BME280;25666;44.350;9.222;2023-03-03T12:04:12;101470.59;;;15.96;66.87
32324;BME280;25666;44.350;9.222;2023-03-03T12:09:42;101464.50;;;15.56;67.82
32324;BME280;25666;44.350;9.222;2023-03-03T12:12:23;101462.44;;;15.37;80.62
32324;BME280;25666;44.350;9.222;2023-03-03T12:15:03;101456.16;;;15.59;85.17
32324;BME280;25666;44.350;9.222;2023-03-03T12:17:55;101458.34;;;15.85;74.29
32324;BME280;25666;44.350;9.222;2023-03-03T12:23:02;101453.31;;;15.94;66.55
32324;BME280;25666;44.350;9.222;2023-03-03T12:25:41;101453.97;;;15.87;66.57
32324;BME280;25666;44.350;9.222;2023-03-03T12:41:28;101442.72;;;15.68;66.67
32324;BME280;25666;44.350;9.222;2023-03-03T12:49:50;101440.34;;;15.70;70.85
32324;BME280;25666;44.350;9.222;2023-03-03T12:52:29;101437.91;;;15.49;68.47
32324;BME280;25666;44.350;9.222;2023-03-03T12:55:07;101429.19;;;15.54;67.58
32324;BME280;25666;44.350;9.222;2023-03-03T13:00:31;101435.78;;;15.62;69.83
32324;BME280;25666;44.350;9.222;2023-03-03T13:03:13;101432.28;;;15.49;65.49
32324;BME280;25666;44.350;9.222;2023-03-03T13:08:50;101437.78;;;15.62;64.21
32324;BME280;25666;44.350;9.222;2023-03-03T13:18:12;101437.78;;;15.62;69.61
32324;BME280;25666;44.350;9.222;2023-03-03T13:20:40;101438.13;;;15.60;73.86
32324;BME280;25666;44.350;9.222;2023-03-03T13:23:11;101431.63;;;15.56;75.77
32324;BME280;25666;44.350;9.222;2023-03-03T13:25:41;101428.75;;;15.52;78.93
32324;BME280;25666;44.350;9.222;2023-03-03T13:28:33;101423.19;;;15.21;85.91
32324;BME280;25666;44.350;9.222;2023-03-03T13:31:13;101428.63;;;15.14;93.43
32324;BME280;25666;44.350;9.222;2023-03-03T13:33:41;101424.88;;;15.07;97.79
32324;BME280;25666;44.350;9.222;2023-03-03T13:36:13;101418.97;;;15.12;96.86
32324;BME280;25666;44.350;9.222;2023-03-03T13:38:49;101419.75;;;15.28;97.12
32324;BME280;25666;44.350;9.222;2023-03-03T13:41:38;101415.75;;;15.29;96.88
32324;BME280;25666;44.350;9.222;2023-03-03T13:44:26;101414.66;;;15.33;87.91
32324;BME280;25666;44.350;9.222;2023-03-03T13:47:23;101417.91;;;15.35;84.42
32324;BME280;25666;44.350;9.222;2023-03-03T13:53:04;101405.22;;;15.41;87.60
32324;BME280;25666;44.350;9.222;2023-03-03T13:56:12;101401.72;;;15.64;83.33
32324;BME280;25666;44.350;9.222;2023-03-03T13:59:19;101393.31;;;15.64;79.62
32324;BME280;25666;44.350;9.222;2023-03-03T14:01:43;101393.38;;;15.67;78.97
32324;BME280;25666;44.350;9.222;2023-03-03T14:07:11;101396.25;;;15.51;75.70
32324;BME280;25666;44.350;9.222;2023-03-03T14:09:49;101393.84;;;15.50;73.94
32324;BME280;25666;44.350;9.222;2023-03-03T14:12:25;101382.47;;;15.62;72.45
32324;BME280;25666;44.350;9.222;2023-03-03T14:20:48;101383.63;;;15.61;74.54
32324;BME280;25666;44.350;9.222;2023-03-03T14:23:19;101384.22;;;15.51;73.50
32324;BME280;25666;44.350;9.222;2023-03-03T14:25:57;101388.38;;;15.41;70.34
32324;BME280;25666;44.350;9.222;2023-03-03T14:28:26;101391.88;;;15.19;90.52
32324;BME280;25666;44.350;9.222;2023-03-03T14:30:54;101386.44;;;15.26;91.06
32324;BME280;25666;44.350;9.222;2023-03-03T14:33:21;101390.97;;;15.31;91.22
32324;BME280;25666;44.350;9.222;2023-03-03T14:43:38;101354.63;;;15.53;81.58
32324;BME280;25666;44.350;9.222;2023-03-03T14:48:56;101357.22;;;15.62;86.47
32324;BME280;25666;44.350;9.222;2023-03-03T14:51:47;101356.22;;;15.74;87.87
32324;BME280;25666;44.350;9.222;2023-03-03T14:54:24;101356.81;;;15.83;83.23
32324;BME280;25666;44.350;9.222;2023-03-03T14:56:58;101352.22;;;15.94;79.27
32324;BME280;25666;44.350;9.222;2023-03-03T14:59:25;101356.34;;;16.00;75.16
32324;BME280;25666;44.350;9.222;2023-03-03T15:04:33;101350.59;;;15.93;73.87
32324;BME280;25666;44.350;9.222;2023-03-03T15:06:58;101352.00;;;15.83;73.97
32324;BME280;25666;44.350;9.222;2023-03-03T15:09:39;101347.22;;;15.65;75.22
32324;BME280;25666;44.350;9.222;2023-03-03T15:15:18;101354.31;;;15.59;74.52
32324;BME280;25666;44.350;9.222;2023-03-03T15:20:40;101353.16;;;15.60;76.62
32324;BME280;25666;44.350;9.222;2023-03-03T15:26:17;101351.28;;;15.48;78.48
32324;BME280;25666;44.350;9.222;2023-03-03T15:32:26;101353.34;;;15.51;80.62
32324;BME280;25666;44.350;9.222;2023-03-03T15:34:56;101347.94;;;15.42;94.51
32324;BME280;25666;44.350;9.222;2023-03-03T15:43:12;101357.28;;;15.12;100.00
32324;BME280;25666;44.350;9.222;2023-03-03T15:45:55;101353.13;;;15.06;100.00
32324;BME280;25666;44.350;9.222;2023-03-03T15:48:45;101354.94;;;14.98;100.00
32324;BME280;25666;44.350;9.222;2023-03-03T16:02:24;101356.97;;;14.82;100.00
32324;BME280;25666;44.350;9.222;2023-03-03T16:16:06;101359.16;;;14.57;100.00
32324;BME280;25666;44.350;9.222;2023-03-03T16:18:43;101365.88;;;14.53;100.00
32324;BME280;25666;44.350;9.222;2023-03-03T16:21:26;101364.78;;;14.41;100.00
32324;BME280;25666;44.350;9.222;2023-03-03T16:23:58;101366.59;;;14.34;100.00
32324;BME280;25666;44.350;9.222;2023-03-03T16:26:47;101365.56;;;14.26;100.00
32324;BME280;25666;44.350;9.222;2023-03-03T16:37:35;101380.66;;;13.94;100.00
32324;BME280;25666;44.350;9.222;2023-03-03T16:40:19;101384.28;;;13.94;100.00
32324;BME280;25666;44.350;9.222;2023-03-03T16:42:49;101380.94;;;13.89;100.00
32324;BME280;25666;44.350;9.222;2023-03-03T16:45:26;101389.94;;;13.82;100.00
32324;BME280;25666;44.350;9.222;2023-03-03T16:50:49;101396.75;;;13.69;100.00
32324;BME280;25666;44.350;9.222;2023-03-03T16:56:09;101404.97;;;13.62;100.00
32324;BME280;25666;44.350;9.222;2023-03-03T17:03:43;101408.19;;;13.24;100.00
32324;BME280;25666;44.350;9.222;2023-03-03T17:06:22;101422.75;;;13.06;100.00
32324;BME280;25666;44.350;9.222;2023-03-03T17:17:04;101428.56;;;12.88;100.00
32324;BME280;25666;44.350;9.222;2023-03-03T17:22:51;101436.00;;;12.84;100.00
32324;BME280;25666;44.350;9.222;2023-03-03T17:25:33;101438.09;;;12.75;100.00
32324;BME280;25666;44.350;9.222;2023-03-03T17:30:59;101453.25;;;12.62;100.00
32324;BME280;25666;44.350;9.222;2023-03-03T17:36:10;101458.09;;;12.53;100.00